sensor_id;sensor_type;location;lat;lon;timestamp;P1;durP1;ratioP1;P2;durP2;ratioP2
12407;SDS011;6268;48.188;17.134;2022-11-15T00:01:38;23.65;;;21.48;;
12407;SDS011;6268;48.188;17.134;2022-11-15T00:04:07;24.40;;;22.27;;
12407;SDS011;6268;48.188;17.134;2022-11-15T00:06:39;23.63;;;21.43;;
12407;SDS011;6268;48.188;17.134;2022-11-15T00:09:08;24.23;;;22.05;;
12407;SDS011;6268;48.188;17.134;2022-11-15T00:11:37;23.47;;;21.23;;
12407;SDS011;6268;48.188;17.134;2022-11-15T00:14:05;23.43;;;21.13;;
12407;SDS011;6268;48.188;17.134;2022-11-15T00:16:34;24.02;;;21.65;;
12407;SDS011;6268;48.188;17.134;2022-11-15T00:19:03;23.70;;;21.50;;
12407;SDS011;6268;48.188;17.134;2022-11-15T00:21:31;23.57;;;21.37;;
12407;SDS011;6268;48.188;17.134;2022-11-15T00:24:01;24.50;;;22.23;;
12407;SDS011;6268;48.188;17.134;2022-11-15T00:26:30;22.50;;;20.37;;
12407;SDS011;6268;48.188;17.134;2022-11-15T00:28:59;22.02;;;19.98;;
12407;SDS011;6268;48.188;17.134;2022-11-15T00:31:27;23.53;;;21.40;;
12407;SDS011;6268;48.188;17.134;2022-11-15T00:33:56;23.90;;;21.65;;
12407;SDS011;6268;48.188;17.134;2022-11-15T00:36:25;24.50;;;22.27;;
12407;SDS011;6268;48.188;17.134;2022-11-15T00:38:53;25.03;;;22.53;;
12407;SDS011;6268;48.188;17.134;2022-11-15T00:41:23;24.10;;;21.80;;
12407;SDS011;6268;48.188;17.134;2022-11-15T00:43:52;22.48;;;20.48;;
12407;SDS011;6268;48.188;17.134;2022-11-15T00:46:21;25.13;;;22.75;;
12407;SDS011;6268;48.188;17.134;2022-11-15T00:48:49;25.75;;;23.35;;
12407;SDS011;6268;48.188;17.134;2022-11-15T00:51:18;26.43;;;23.83;;
12407;SDS011;6268;48.188;17.134;2022-11-15T00:53:47;24.90;;;22.50;;
12407;SDS011;6268;48.188;17.134;2022-11-15T00:56:15;24.73;;;22.33;;
12407;SDS011;6268;48.188;17.134;2022-11-15T00:58:45;23.13;;;21.03;;
12407;SDS011;6268;48.188;17.134;2022-11-15T01:01:14;26.30;;;23.70;;
12407;SDS011;6268;48.188;17.134;2022-11-15T01:03:43;24.73;;;22.40;;
12407;SDS011;6268;48.188;17.134;2022-11-15T01:06:12;22.87;;;20.67;;
12407;SDS011;6268;48.188;17.134;2022-11-15T01:08:40;25.53;;;23.13;;
12407;SDS011;6268;48.188;17.134;2022-11-15T01:11:10;26.70;;;24.03;;
12407;SDS011;6268;48.188;17.134;2022-11-15T01:13:39;27.75;;;24.95;;
12407;SDS011;6268;48.188;17.134;2022-11-15T01:16:10;28.50;;;25.70;;
12407;SDS011;6268;48.188;17.134;2022-11-15T01:18:43;28.13;;;25.27;;
12407;SDS011;6268;48.188;17.134;2022-11-15T01:21:13;27.00;;;24.30;;
12407;SDS011;6268;48.188;17.134;2022-11-15T01:23:45;29.02;;;26.02;;
12407;SDS011;6268;48.188;17.134;2022-11-15T01:26:15;30.25;;;27.02;;
12407;SDS011;6268;48.188;17.134;2022-11-15T01:28:44;31.40;;;28.15;;
12407;SDS011;6268;48.188;17.134;2022-11-15T01:31:15;29.95;;;26.83;;
12407;SDS011;6268;48.188;17.134;2022-11-15T01:33:46;30.02;;;26.85;;
12407;SDS011;6268;48.188;17.134;2022-11-15T01:36:17;31.00;;;27.58;;
12407;SDS011;6268;48.188;17.134;2022-11-15T01:38:52;31.07;;;27.97;;
12407;SDS011;6268;48.188;17.134;2022-11-15T01:41:22;30.67;;;27.52;;
12407;SDS011;6268;48.188;17.134;2022-11-15T01:43:54;29.85;;;26.83;;
12407;SDS011;6268;48.188;17.134;2022-11-15T01:46:28;29.13;;;26.23;;
12407;SDS011;6268;48.188;17.134;2022-11-15T01:49:02;28.05;;;25.15;;
12407;SDS011;6268;48.188;17.134;2022-11-15T01:51:40;30.48;;;27.33;;
12407;SDS011;6268;48.188;17.134;2022-11-15T01:54:10;31.57;;;28.20;;
12407;SDS011;6268;48.188;17.134;2022-11-15T01:56:45;29.73;;;26.73;;
12407;SDS011;6268;48.188;17.134;2022-11-15T01:59:18;30.48;;;27.27;;
12407;SDS011;6268;48.188;17.134;2022-11-15T02:02:05;28.50;;;25.53;;
12407;SDS011;6268;48.188;17.134;2022-11-15T02:04:35;30.85;;;27.70;;
12407;SDS011;6268;48.188;17.134;2022-11-15T02:07:08;30.00;;;26.90;;
12407;SDS011;6268;48.188;17.134;2022-11-15T02:09:41;35.20;;;31.17;;
12407;SDS011;6268;48.188;17.134;2022-11-15T02:12:12;35.07;;;31.07;;
12407;SDS011;6268;48.188;17.134;2022-11-15T02:14:46;34.22;;;30.63;;
12407;SDS011;6268;48.188;17.134;2022-11-15T02:17:31;35.78;;;30.65;;
12407;SDS011;6268;48.188;17.134;2022-11-15T02:23:37;35.33;;;30.03;;
12407;SDS011;6268;48.188;17.134;2022-11-15T02:30:25;31.97;;;28.67;;
12407;SDS011;6268;48.188;17.134;2022-11-15T02:33:08;36.63;;;32.22;;
12407;SDS011;6268;48.188;17.134;2022-11-15T02:35:57;35.33;;;31.50;;
12407;SDS011;6268;48.188;17.134;2022-11-15T02:38:31;34.00;;;30.40;;
12407;SDS011;6268;48.188;17.134;2022-11-15T02:41:09;34.27;;;29.47;;
12407;SDS011;6268;48.188;17.134;2022-11-15T02:43:45;33.50;;;29.90;;
12407;SDS011;6268;48.188;17.134;2022-11-15T02:46:25;32.20;;;28.85;;
12407;SDS011;6268;48.188;17.134;2022-11-15T02:49:20;33.67;;;30.15;;
12407;SDS011;6268;48.188;17.134;2022-11-15T02:51:51;38.83;;;33.35;;
12407;SDS011;6268;48.188;17.134;2022-11-15T02:54:24;37.15;;;32.00;;
12407;SDS011;6268;48.188;17.134;2022-11-15T02:56:58;38.17;;;31.90;;
12407;SDS011;6268;48.188;17.134;2022-11-15T03:02:40;38.08;;;33.60;;
12407;SDS011;6268;48.188;17.134;2022-11-15T03:05:29;39.60;;;35.30;;
12407;SDS011;6268;48.188;17.134;2022-11-15T03:08:05;39.13;;;34.92;;
12407;SDS011;6268;48.188;17.134;2022-11-15T03:10:42;41.03;;;36.20;;
12407;SDS011;6268;48.188;17.134;2022-11-15T03:13:26;41.63;;;36.35;;
12407;SDS011;6268;48.188;17.134;2022-11-15T03:16:03;44.50;;;38.40;;
12407;SDS011;6268;48.188;17.134;2022-11-15T03:18:38;44.83;;;38.65;;
12407;SDS011;6268;48.188;17.134;2022-11-15T03:21:13;41.90;;;36.05;;
12407;SDS011;6268;48.188;17.134;2022-11-15T03:23:46;43.50;;;37.45;;
12407;SDS011;6268;48.188;17.134;2022-11-15T03:26:17;42.95;;;36.90;;
12407;SDS011;6268;48.188;17.134;2022-11-15T03:28:52;43.57;;;37.40;;
12407;SDS011;6268;48.188;17.134;2022-11-15T03:31:26;48.10;;;42.08;;
12407;SDS011;6268;48.188;17.134;2022-11-15T03:34:20;47.25;;;42.22;;
12407;SDS011;6268;48.188;17.134;2022-11-15T03:36:56;48.75;;;43.15;;
12407;SDS011;6268;48.188;17.134;2022-11-15T03:39:25;48.67;;;43.27;;
12407;SDS011;6268;48.188;17.134;2022-11-15T03:41:57;49.95;;;44.08;;
12407;SDS011;6268;48.188;17.134;2022-11-15T03:44:47;54.33;;;45.70;;
12407;SDS011;6268;48.188;17.134;2022-11-15T03:47:27;58.50;;;47.90;;
12407;SDS011;6268;48.188;17.134;2022-11-15T03:50:04;56.47;;;47.10;;
12407;SDS011;6268;48.188;17.134;2022-11-15T03:52:38;55.60;;;46.73;;
12407;SDS011;6268;48.188;17.134;2022-11-15T03:55:12;57.17;;;47.30;;
12407;SDS011;6268;48.188;17.134;2022-11-15T03:57:43;53.80;;;45.38;;
12407;SDS011;6268;48.188;17.134;2022-11-15T04:00:12;54.45;;;46.78;;
12407;SDS011;6268;48.188;17.134;2022-11-15T04:02:41;52.45;;;46.67;;
12407;SDS011;6268;48.188;17.134;2022-11-15T04:05:11;53.80;;;46.27;;
12407;SDS011;6268;48.188;17.134;2022-11-15T04:07:40;58.42;;;49.83;;
12407;SDS011;6268;48.188;17.134;2022-11-15T04:10:09;63.67;;;51.30;;
12407;SDS011;6268;48.188;17.134;2022-11-15T04:12:39;59.40;;;50.33;;
12407;SDS011;6268;48.188;17.134;2022-11-15T04:15:13;60.08;;;49.72;;
12407;SDS011;6268;48.188;17.134;2022-11-15T04:17:45;60.83;;;50.25;;
12407;SDS011;6268;48.188;17.134;2022-11-15T04:20:19;66.07;;;51.03;;
12407;SDS011;6268;48.188;17.134;2022-11-15T04:23:09;58.93;;;48.07;;
12407;SDS011;6268;48.188;17.134;2022-11-15T04:25:58;59.47;;;49.85;;
12407;SDS011;6268;48.188;17.134;2022-11-15T04:28:29;54.60;;;47.80;;
12407;SDS011;6268;48.188;17.134;2022-11-15T04:30:58;55.67;;;48.60;;
12407;SDS011;6268;48.188;17.134;2022-11-15T04:33:27;57.20;;;48.45;;
12407;SDS011;6268;48.188;17.134;2022-11-15T04:35:58;59.05;;;49.60;;
12407;SDS011;6268;48.188;17.134;2022-11-15T04:38:44;54.92;;;47.33;;
12407;SDS011;6268;48.188;17.134;2022-11-15T04:41:12;55.95;;;48.60;;
12407;SDS011;6268;48.188;17.134;2022-11-15T04:43:41;57.58;;;49.40;;
12407;SDS011;6268;48.188;17.134;2022-11-15T04:46:09;56.67;;;48.70;;
12407;SDS011;6268;48.188;17.134;2022-11-15T04:48:38;63.15;;;53.78;;
12407;SDS011;6268;48.188;17.134;2022-11-15T04:51:08;62.83;;;52.03;;
12407;SDS011;6268;48.188;17.134;2022-11-15T04:53:37;56.00;;;49.35;;
12407;SDS011;6268;48.188;17.134;2022-11-15T04:56:05;66.05;;;53.08;;
12407;SDS011;6268;48.188;17.134;2022-11-15T04:58:35;64.93;;;52.67;;
12407;SDS011;6268;48.188;17.134;2022-11-15T05:01:06;60.15;;;49.67;;
12407;SDS011;6268;48.188;17.134;2022-11-15T05:03:35;59.30;;;51.08;;
12407;SDS011;6268;48.188;17.134;2022-11-15T05:06:20;57.93;;;49.10;;
12407;SDS011;6268;48.188;17.134;2022-11-15T05:08:49;60.90;;;51.13;;
12407;SDS011;6268;48.188;17.134;2022-11-15T05:11:18;61.95;;;50.25;;
12407;SDS011;6268;48.188;17.134;2022-11-15T05:13:47;57.87;;;50.17;;
12407;SDS011;6268;48.188;17.134;2022-11-15T05:16:15;56.15;;;49.35;;
12407;SDS011;6268;48.188;17.134;2022-11-15T05:18:44;55.55;;;48.28;;
12407;SDS011;6268;48.188;17.134;2022-11-15T05:21:14;56.25;;;48.50;;
12407;SDS011;6268;48.188;17.134;2022-11-15T05:23:44;55.47;;;48.75;;
12407;SDS011;6268;48.188;17.134;2022-11-15T05:26:14;53.60;;;47.72;;
12407;SDS011;6268;48.188;17.134;2022-11-15T05:28:45;53.70;;;47.73;;
12407;SDS011;6268;48.188;17.134;2022-11-15T05:31:14;53.28;;;47.03;;
12407;SDS011;6268;48.188;17.134;2022-11-15T05:33:43;53.67;;;47.45;;
12407;SDS011;6268;48.188;17.134;2022-11-15T05:36:14;53.97;;;47.03;;
12407;SDS011;6268;48.188;17.134;2022-11-15T05:38:50;54.53;;;47.40;;
12407;SDS011;6268;48.188;17.134;2022-11-15T05:41:20;54.05;;;46.42;;
12407;SDS011;6268;48.188;17.134;2022-11-15T05:43:56;53.58;;;45.92;;
12407;SDS011;6268;48.188;17.134;2022-11-15T05:46:28;51.77;;;45.30;;
12407;SDS011;6268;48.188;17.134;2022-11-15T05:48:57;59.55;;;50.22;;
12407;SDS011;6268;48.188;17.134;2022-11-15T05:51:27;54.97;;;49.07;;
12407;SDS011;6268;48.188;17.134;2022-11-15T05:53:59;60.65;;;49.40;;
12407;SDS011;6268;48.188;17.134;2022-11-15T05:56:29;58.83;;;50.20;;
12407;SDS011;6268;48.188;17.134;2022-11-15T05:58:58;55.40;;;49.38;;
12407;SDS011;6268;48.188;17.134;2022-11-15T06:01:27;48.30;;;43.20;;
12407;SDS011;6268;48.188;17.134;2022-11-15T06:03:56;47.35;;;42.38;;
12407;SDS011;6268;48.188;17.134;2022-11-15T06:06:26;49.20;;;41.60;;
12407;SDS011;6268;48.188;17.134;2022-11-15T06:08:55;45.50;;;40.58;;
12407;SDS011;6268;48.188;17.134;2022-11-15T06:11:25;44.47;;;39.60;;
12407;SDS011;6268;48.188;17.134;2022-11-15T06:13:54;45.50;;;40.65;;
12407;SDS011;6268;48.188;17.134;2022-11-15T06:16:24;44.25;;;39.03;;
12407;SDS011;6268;48.188;17.134;2022-11-15T06:18:52;44.13;;;39.30;;
12407;SDS011;6268;48.188;17.134;2022-11-15T06:21:21;43.70;;;39.10;;
12407;SDS011;6268;48.188;17.134;2022-11-15T06:23:50;44.27;;;39.47;;
12407;SDS011;6268;48.188;17.134;2022-11-15T06:26:19;43.03;;;38.43;;
12407;SDS011;6268;48.188;17.134;2022-11-15T06:28:49;43.08;;;38.42;;
12407;SDS011;6268;48.188;17.134;2022-11-15T06:31:18;42.75;;;38.22;;
12407;SDS011;6268;48.188;17.134;2022-11-15T06:33:47;38.63;;;34.63;;
12407;SDS011;6268;48.188;17.134;2022-11-15T06:36:16;38.13;;;34.08;;
12407;SDS011;6268;48.188;17.134;2022-11-15T06:38:45;35.78;;;31.95;;
12407;SDS011;6268;48.188;17.134;2022-11-15T06:41:14;36.47;;;32.58;;
12407;SDS011;6268;48.188;17.134;2022-11-15T06:43:44;34.65;;;31.17;;
12407;SDS011;6268;48.188;17.134;2022-11-15T06:46:14;34.20;;;30.58;;
12407;SDS011;6268;48.188;17.134;2022-11-15T06:48:42;35.90;;;32.00;;
12407;SDS011;6268;48.188;17.134;2022-11-15T06:51:11;33.97;;;30.35;;
12407;SDS011;6268;48.188;17.134;2022-11-15T06:53:40;32.58;;;29.17;;
12407;SDS011;6268;48.188;17.134;2022-11-15T06:56:08;34.10;;;30.55;;
12407;SDS011;6268;48.188;17.134;2022-11-15T06:58:37;32.40;;;29.17;;
12407;SDS011;6268;48.188;17.134;2022-11-15T07:01:06;33.83;;;30.23;;
12407;SDS011;6268;48.188;17.134;2022-11-15T07:03:39;33.05;;;29.58;;
12407;SDS011;6268;48.188;17.134;2022-11-15T07:06:09;32.30;;;28.98;;
12407;SDS011;6268;48.188;17.134;2022-11-15T07:08:38;33.67;;;29.80;;
12407;SDS011;6268;48.188;17.134;2022-11-15T07:11:08;34.90;;;31.33;;
12407;SDS011;6268;48.188;17.134;2022-11-15T07:13:37;33.90;;;30.45;;
12407;SDS011;6268;48.188;17.134;2022-11-15T07:16:06;33.92;;;30.38;;
12407;SDS011;6268;48.188;17.134;2022-11-15T07:18:39;34.03;;;30.52;;
12407;SDS011;6268;48.188;17.134;2022-11-15T07:21:08;31.70;;;28.40;;
12407;SDS011;6268;48.188;17.134;2022-11-15T07:23:39;34.07;;;29.00;;
12407;SDS011;6268;48.188;17.134;2022-11-15T07:26:08;32.35;;;29.15;;
12407;SDS011;6268;48.188;17.134;2022-11-15T07:28:37;31.77;;;28.57;;
12407;SDS011;6268;48.188;17.134;2022-11-15T07:31:07;29.83;;;26.92;;
12407;SDS011;6268;48.188;17.134;2022-11-15T07:33:36;29.40;;;26.55;;
12407;SDS011;6268;48.188;17.134;2022-11-15T07:36:07;32.08;;;28.50;;
12407;SDS011;6268;48.188;17.134;2022-11-15T07:38:36;30.08;;;26.98;;
12407;SDS011;6268;48.188;17.134;2022-11-15T07:41:08;31.25;;;28.10;;
12407;SDS011;6268;48.188;17.134;2022-11-15T07:43:37;31.95;;;28.55;;
12407;SDS011;6268;48.188;17.134;2022-11-15T07:46:06;31.85;;;28.67;;
12407;SDS011;6268;48.188;17.134;2022-11-15T07:48:36;31.40;;;28.15;;
12407;SDS011;6268;48.188;17.134;2022-11-15T07:51:11;31.83;;;28.42;;
12407;SDS011;6268;48.188;17.134;2022-11-15T07:53:41;30.75;;;27.60;;
12407;SDS011;6268;48.188;17.134;2022-11-15T07:56:10;32.83;;;29.33;;
12407;SDS011;6268;48.188;17.134;2022-11-15T07:58:39;32.00;;;28.63;;
12407;SDS011;6268;48.188;17.134;2022-11-15T08:01:09;31.00;;;27.80;;
12407;SDS011;6268;48.188;17.134;2022-11-15T08:03:40;31.65;;;28.55;;
12407;SDS011;6268;48.188;17.134;2022-11-15T08:06:09;31.73;;;28.40;;
12407;SDS011;6268;48.188;17.134;2022-11-15T08:08:37;29.63;;;26.58;;
12407;SDS011;6268;48.188;17.134;2022-11-15T08:11:06;29.88;;;26.88;;
12407;SDS011;6268;48.188;17.134;2022-11-15T08:13:34;31.48;;;28.10;;
12407;SDS011;6268;48.188;17.134;2022-11-15T08:16:05;30.67;;;27.48;;
12407;SDS011;6268;48.188;17.134;2022-11-15T08:18:39;30.10;;;26.92;;
12407;SDS011;6268;48.188;17.134;2022-11-15T08:22:10;32.55;;;28.10;;
12407;SDS011;6268;48.188;17.134;2022-11-15T08:25:15;30.45;;;27.35;;
12407;SDS011;6268;48.188;17.134;2022-11-15T08:27:44;29.83;;;26.75;;
12407;SDS011;6268;48.188;17.134;2022-11-15T08:30:15;32.92;;;29.10;;
12407;SDS011;6268;48.188;17.134;2022-11-15T08:32:44;32.28;;;27.27;;
12407;SDS011;6268;48.188;17.134;2022-11-15T08:35:13;29.85;;;27.05;;
12407;SDS011;6268;48.188;17.134;2022-11-15T08:37:43;28.95;;;26.05;;
12407;SDS011;6268;48.188;17.134;2022-11-15T08:40:12;29.98;;;26.85;;
12407;SDS011;6268;48.188;17.134;2022-11-15T08:42:41;31.85;;;28.45;;
12407;SDS011;6268;48.188;17.134;2022-11-15T08:45:13;31.67;;;27.92;;
12407;SDS011;6268;48.188;17.134;2022-11-15T08:47:42;30.55;;;27.50;;
12407;SDS011;6268;48.188;17.134;2022-11-15T08:50:18;31.17;;;28.08;;
12407;SDS011;6268;48.188;17.134;2022-11-15T08:52:48;31.58;;;28.27;;
12407;SDS011;6268;48.188;17.134;2022-11-15T08:55:17;30.08;;;27.00;;
12407;SDS011;6268;48.188;17.134;2022-11-15T08:57:50;30.67;;;27.42;;
12407;SDS011;6268;48.188;17.134;2022-11-15T09:00:21;30.15;;;27.25;;
12407;SDS011;6268;48.188;17.134;2022-11-15T09:02:51;31.30;;;27.92;;
12407;SDS011;6268;48.188;17.134;2022-11-15T09:05:22;31.98;;;28.25;;
12407;SDS011;6268;48.188;17.134;2022-11-15T09:07:53;31.80;;;28.33;;
12407;SDS011;6268;48.188;17.134;2022-11-15T09:10:24;30.00;;;26.92;;
12407;SDS011;6268;48.188;17.134;2022-11-15T09:12:56;30.60;;;27.30;;
12407;SDS011;6268;48.188;17.134;2022-11-15T09:15:25;30.52;;;27.40;;
12407;SDS011;6268;48.188;17.134;2022-11-15T09:17:53;28.90;;;25.83;;
12407;SDS011;6268;48.188;17.134;2022-11-15T09:20:25;29.67;;;26.63;;
12407;SDS011;6268;48.188;17.134;2022-11-15T09:23:00;32.25;;;28.83;;
12407;SDS011;6268;48.188;17.134;2022-11-15T09:25:29;29.33;;;26.33;;
12407;SDS011;6268;48.188;17.134;2022-11-15T09:28:00;30.13;;;27.08;;
12407;SDS011;6268;48.188;17.134;2022-11-15T09:30:33;32.55;;;29.02;;
12407;SDS011;6268;48.188;17.134;2022-11-15T09:33:06;30.25;;;27.15;;
12407;SDS011;6268;48.188;17.134;2022-11-15T09:35:35;30.80;;;27.60;;
12407;SDS011;6268;48.188;17.134;2022-11-15T09:38:06;30.40;;;27.20;;
12407;SDS011;6268;48.188;17.134;2022-11-15T09:40:35;31.42;;;28.20;;
12407;SDS011;6268;48.188;17.134;2022-11-15T09:43:09;41.15;;;36.67;;
12407;SDS011;6268;48.188;17.134;2022-11-15T09:45:58;30.85;;;27.55;;
12407;SDS011;6268;48.188;17.134;2022-11-15T09:48:46;31.73;;;27.75;;
12407;SDS011;6268;48.188;17.134;2022-11-15T09:51:23;29.95;;;26.85;;
12407;SDS011;6268;48.188;17.134;2022-11-15T09:53:59;32.05;;;28.55;;
12407;SDS011;6268;48.188;17.134;2022-11-15T09:57:02;30.48;;;27.42;;
12407;SDS011;6268;48.188;17.134;2022-11-15T10:00:03;31.48;;;27.25;;
12407;SDS011;6268;48.188;17.134;2022-11-15T10:03:07;30.70;;;27.58;;
12407;SDS011;6268;48.188;17.134;2022-11-15T10:05:41;32.55;;;29.02;;
12407;SDS011;6268;48.188;17.134;2022-11-15T10:11:20;31.98;;;28.67;;
12407;SDS011;6268;48.188;17.134;2022-11-15T10:14:09;33.35;;;29.95;;
12407;SDS011;6268;48.188;17.134;2022-11-15T10:19:57;32.22;;;28.98;;
12407;SDS011;6268;48.188;17.134;2022-11-15T10:22:41;32.13;;;28.63;;
12407;SDS011;6268;48.188;17.134;2022-11-15T10:25:16;31.27;;;28.02;;
12407;SDS011;6268;48.188;17.134;2022-11-15T10:27:57;30.00;;;26.77;;
12407;SDS011;6268;48.188;17.134;2022-11-15T10:30:35;35.55;;;31.80;;
12407;SDS011;6268;48.188;17.134;2022-11-15T10:36:19;34.75;;;31.10;;
12407;SDS011;6268;48.188;17.134;2022-11-15T10:38:55;34.17;;;30.58;;
12407;SDS011;6268;48.188;17.134;2022-11-15T10:41:29;34.10;;;30.40;;
12407;SDS011;6268;48.188;17.134;2022-11-15T10:44:11;33.00;;;29.48;;
12407;SDS011;6268;48.188;17.134;2022-11-15T10:47:04;31.95;;;28.60;;
12407;SDS011;6268;48.188;17.134;2022-11-15T10:49:53;33.53;;;29.65;;
12407;SDS011;6268;48.188;17.134;2022-11-15T10:52:27;34.88;;;29.83;;
12407;SDS011;6268;48.188;17.134;2022-11-15T10:55:00;32.50;;;29.05;;
12407;SDS011;6268;48.188;17.134;2022-11-15T10:57:47;35.05;;;31.25;;
12407;SDS011;6268;48.188;17.134;2022-11-15T11:03:24;33.58;;;29.92;;
12407;SDS011;6268;48.188;17.134;2022-11-15T11:06:04;33.47;;;29.98;;
12407;SDS011;6268;48.188;17.134;2022-11-15T11:08:36;33.95;;;30.25;;
12407;SDS011;6268;48.188;17.134;2022-11-15T11:11:06;34.80;;;31.20;;
12407;SDS011;6268;48.188;17.134;2022-11-15T11:13:35;32.90;;;29.58;;
12407;SDS011;6268;48.188;17.134;2022-11-15T11:19:15;37.28;;;32.38;;
12407;SDS011;6268;48.188;17.134;2022-11-15T11:22:09;36.03;;;32.08;;
12407;SDS011;6268;48.188;17.134;2022-11-15T11:24:53;33.75;;;30.25;;
12407;SDS011;6268;48.188;17.134;2022-11-15T11:27:42;37.83;;;31.38;;
12407;SDS011;6268;48.188;17.134;2022-11-15T11:30:30;34.63;;;30.83;;
12407;SDS011;6268;48.188;17.134;2022-11-15T11:33:17;35.42;;;31.77;;
12407;SDS011;6268;48.188;17.134;2022-11-15T11:35:57;35.92;;;32.05;;
12407;SDS011;6268;48.188;17.134;2022-11-15T11:41:50;43.45;;;38.85;;
12407;SDS011;6268;48.188;17.134;2022-11-15T11:44:36;37.20;;;33.30;;
12407;SDS011;6268;48.188;17.134;2022-11-15T11:47:24;39.65;;;35.30;;
12407;SDS011;6268;48.188;17.134;2022-11-15T11:50:02;38.35;;;34.22;;
12407;SDS011;6268;48.188;17.134;2022-11-15T11:52:54;40.70;;;34.80;;
12407;SDS011;6268;48.188;17.134;2022-11-15T11:55:31;36.53;;;32.55;;
12407;SDS011;6268;48.188;17.134;2022-11-15T11:58:09;37.03;;;33.00;;
12407;SDS011;6268;48.188;17.134;2022-11-15T12:00:45;37.47;;;33.45;;
12407;SDS011;6268;48.188;17.134;2022-11-15T12:03:21;37.92;;;33.75;;
12407;SDS011;6268;48.188;17.134;2022-11-15T12:05:59;38.70;;;33.75;;
12407;SDS011;6268;48.188;17.134;2022-11-15T12:08:35;37.67;;;33.55;;
12407;SDS011;6268;48.188;17.134;2022-11-15T12:11:14;39.05;;;34.03;;
12407;SDS011;6268;48.188;17.134;2022-11-15T12:13:50;37.45;;;33.38;;
12407;SDS011;6268;48.188;17.134;2022-11-15T12:16:27;38.78;;;34.47;;
12407;SDS011;6268;48.188;17.134;2022-11-15T12:18:59;39.05;;;34.80;;
12407;SDS011;6268;48.188;17.134;2022-11-15T12:21:34;38.72;;;34.67;;
12407;SDS011;6268;48.188;17.134;2022-11-15T12:24:13;41.03;;;36.35;;
12407;SDS011;6268;48.188;17.134;2022-11-15T12:26:49;40.90;;;36.30;;
12407;SDS011;6268;48.188;17.134;2022-11-15T12:29:26;39.90;;;35.28;;
12407;SDS011;6268;48.188;17.134;2022-11-15T12:32:17;40.42;;;35.42;;
12407;SDS011;6268;48.188;17.134;2022-11-15T12:34:54;43.30;;;38.00;;
12407;SDS011;6268;48.188;17.134;2022-11-15T12:37:47;39.83;;;35.30;;
12407;SDS011;6268;48.188;17.134;2022-11-15T12:40:25;46.92;;;36.83;;
12407;SDS011;6268;48.188;17.134;2022-11-15T12:46:10;42.22;;;37.53;;
12407;SDS011;6268;48.188;17.134;2022-11-15T12:48:48;42.97;;;38.55;;
12407;SDS011;6268;48.188;17.134;2022-11-15T12:51:22;42.97;;;38.60;;
12407;SDS011;6268;48.188;17.134;2022-11-15T12:54:53;41.80;;;37.30;;
12407;SDS011;6268;48.188;17.134;2022-11-15T12:57:29;40.33;;;35.92;;
12407;SDS011;6268;48.188;17.134;2022-11-15T13:03:23;39.97;;;34.92;;
12407;SDS011;6268;48.188;17.134;2022-11-15T13:06:00;41.05;;;36.60;;
12407;SDS011;6268;48.188;17.134;2022-11-15T13:08:36;40.55;;;36.15;;
12407;SDS011;6268;48.188;17.134;2022-11-15T13:17:30;39.20;;;35.13;;
12407;SDS011;6268;48.188;17.134;2022-11-15T13:23:01;37.05;;;33.15;;
12407;SDS011;6268;48.188;17.134;2022-11-15T13:25:57;40.22;;;35.30;;
12407;SDS011;6268;48.188;17.134;2022-11-15T13:28:44;39.45;;;35.17;;
12407;SDS011;6268;48.188;17.134;2022-11-15T13:31:25;38.92;;;33.47;;
12407;SDS011;6268;48.188;17.134;2022-11-15T13:34:03;38.30;;;34.10;;
12407;SDS011;6268;48.188;17.134;2022-11-15T13:37:09;41.15;;;35.83;;
12407;SDS011;6268;48.188;17.134;2022-11-15T13:40:09;37.60;;;33.50;;
12407;SDS011;6268;48.188;17.134;2022-11-15T13:42:48;38.55;;;34.28;;
12407;SDS011;6268;48.188;17.134;2022-11-15T13:45:19;38.13;;;34.10;;
12407;SDS011;6268;48.188;17.134;2022-11-15T13:47:51;40.40;;;33.78;;
12407;SDS011;6268;48.188;17.134;2022-11-15T13:50:25;38.53;;;34.33;;
12407;SDS011;6268;48.188;17.134;2022-11-15T13:53:01;39.47;;;35.28;;
12407;SDS011;6268;48.188;17.134;2022-11-15T13:55:32;38.15;;;34.15;;
12407;SDS011;6268;48.188;17.134;2022-11-15T13:58:02;39.60;;;35.20;;
12407;SDS011;6268;48.188;17.134;2022-11-15T14:00:36;39.67;;;35.20;;
12407;SDS011;6268;48.188;17.134;2022-11-15T14:03:19;38.85;;;34.33;;
12407;SDS011;6268;48.188;17.134;2022-11-15T14:06:05;39.90;;;35.60;;
12407;SDS011;6268;48.188;17.134;2022-11-15T14:08:38;40.00;;;35.63;;
12407;SDS011;6268;48.188;17.134;2022-11-15T14:11:09;39.35;;;35.15;;
12407;SDS011;6268;48.188;17.134;2022-11-15T14:13:59;40.38;;;35.60;;
12407;SDS011;6268;48.188;17.134;2022-11-15T14:16:42;40.03;;;35.65;;
12407;SDS011;6268;48.188;17.134;2022-11-15T14:19:32;37.95;;;33.88;;
12407;SDS011;6268;48.188;17.134;2022-11-15T14:22:14;39.05;;;34.85;;
12407;SDS011;6268;48.188;17.134;2022-11-15T14:25:04;39.47;;;34.90;;
12407;SDS011;6268;48.188;17.134;2022-11-15T14:30:44;37.85;;;33.78;;
12407;SDS011;6268;48.188;17.134;2022-11-15T14:33:27;37.60;;;33.70;;
12407;SDS011;6268;48.188;17.134;2022-11-15T14:36:21;35.47;;;31.77;;
12407;SDS011;6268;48.188;17.134;2022-11-15T14:38:52;39.05;;;33.90;;
12407;SDS011;6268;48.188;17.134;2022-11-15T14:41:24;36.38;;;32.65;;
12407;SDS011;6268;48.188;17.134;2022-11-15T14:43:58;36.83;;;32.90;;
12407;SDS011;6268;48.188;17.134;2022-11-15T14:46:26;36.90;;;33.10;;
12407;SDS011;6268;48.188;17.134;2022-11-15T14:48:57;41.10;;;35.90;;
12407;SDS011;6268;48.188;17.134;2022-11-15T14:51:27;36.90;;;32.38;;
12407;SDS011;6268;48.188;17.134;2022-11-15T14:54:01;47.67;;;40.65;;
12407;SDS011;6268;48.188;17.134;2022-11-15T14:56:29;44.67;;;39.70;;
12407;SDS011;6268;48.188;17.134;2022-11-15T14:58:58;35.40;;;31.58;;
12407;SDS011;6268;48.188;17.134;2022-11-15T15:01:27;34.33;;;30.65;;
12407;SDS011;6268;48.188;17.134;2022-11-15T15:03:57;35.10;;;31.40;;
12407;SDS011;6268;48.188;17.134;2022-11-15T15:06:26;35.80;;;32.05;;
12407;SDS011;6268;48.188;17.134;2022-11-15T15:08:55;35.58;;;31.70;;
12407;SDS011;6268;48.188;17.134;2022-11-15T15:11:25;43.25;;;38.58;;
12407;SDS011;6268;48.188;17.134;2022-11-15T15:14:00;44.95;;;39.95;;
12407;SDS011;6268;48.188;17.134;2022-11-15T15:16:57;47.10;;;41.75;;
12407;SDS011;6268;48.188;17.134;2022-11-15T15:19:28;45.25;;;40.47;;
12407;SDS011;6268;48.188;17.134;2022-11-15T15:21:59;45.15;;;40.33;;
12407;SDS011;6268;48.188;17.134;2022-11-15T15:24:34;44.92;;;40.25;;
12407;SDS011;6268;48.188;17.134;2022-11-15T15:27:02;41.50;;;37.00;;
12407;SDS011;6268;48.188;17.134;2022-11-15T15:29:31;45.38;;;40.70;;
12407;SDS011;6268;48.188;17.134;2022-11-15T15:32:00;54.45;;;48.85;;
12407;SDS011;6268;48.188;17.134;2022-11-15T15:34:30;48.20;;;42.95;;
12407;SDS011;6268;48.188;17.134;2022-11-15T15:37:09;41.70;;;37.17;;
12407;SDS011;6268;48.188;17.134;2022-11-15T15:39:50;34.63;;;31.02;;
12407;SDS011;6268;48.188;17.134;2022-11-15T15:42:21;32.80;;;29.30;;
12407;SDS011;6268;48.188;17.134;2022-11-15T15:44:50;34.85;;;31.15;;
12407;SDS011;6268;48.188;17.134;2022-11-15T15:47:20;34.70;;;30.85;;
12407;SDS011;6268;48.188;17.134;2022-11-15T15:49:52;33.17;;;29.58;;
12407;SDS011;6268;48.188;17.134;2022-11-15T15:52:21;33.08;;;29.48;;